createdAt,value
2023-03-28T00:02:11.988Z,2.65
2023-03-28T00:04:43.984Z,2.90
2023-03-28T00:07:15.933Z,2.67
2023-03-28T00:09:50.693Z,2.65
2023-03-28T00:12:22.804Z,3.08
2023-03-28T00:14:57.012Z,3.35
2023-03-28T00:17:30.740Z,3.22
2023-03-28T00:20:08.730Z,2.87
2023-03-28T00:22:41.161Z,3.45
2023-03-28T00:25:13.499Z,3.40
2023-03-28T00:27:45.565Z,3.77
2023-03-28T00:30:17.811Z,3.08
2023-03-28T00:32:49.889Z,3.15
2023-03-28T00:35:22.273Z,4.20
2023-03-28T00:37:56.627Z,3.60
2023-03-28T00:40:30.974Z,3.50
2023-03-28T00:43:02.892Z,3.50
2023-03-28T00:45:35.409Z,3.37
2023-03-28T00:48:15.474Z,3.87
2023-03-28T00:50:48.869Z,3.70
2023-03-28T00:53:23.932Z,3.47
2023-03-28T00:56:01.893Z,3.15
2023-03-28T00:58:36.854Z,3.20
2023-03-28T01:01:11.210Z,3.33
2023-03-28T01:03:46.612Z,3.60
2023-03-28T01:06:21.730Z,3.77
2023-03-28T01:11:26.674Z,3.58
2023-03-28T01:14:02.528Z,3.98
2023-03-28T01:16:36.527Z,3.70
2023-03-28T01:19:14.351Z,4.03
2023-03-28T01:22:06.978Z,3.80
2023-03-28T01:25:01.144Z,4.10
2023-03-28T01:27:54.586Z,3.72
2023-03-28T01:30:47.692Z,4.65
2023-03-28T01:33:52.187Z,4.10
2023-03-28T01:36:48.505Z,4.35
2023-03-28T01:39:29.382Z,4.03
2023-03-28T01:42:06.263Z,4.25
2023-03-28T01:44:44.813Z,5.03
2023-03-28T01:47:37.794Z,4.87
2023-03-28T01:50:27.497Z,4.70
2023-03-28T01:53:03.506Z,4.67
2023-03-28T01:55:42.828Z,5.00
2023-03-28T01:58:38.699Z,4.62
2023-03-28T02:01:24.793Z,4.42
2023-03-28T02:04:01.725Z,4.47
2023-03-28T02:06:41.109Z,4.70
2023-03-28T02:09:17.486Z,4.83
2023-03-28T02:12:02.942Z,4.78
2023-03-28T02:14:39.650Z,4.40
2023-03-28T02:17:35.938Z,4.92
2023-03-28T02:20:19.582Z,4.53
2023-03-28T02:23:14.124Z,4.30
2023-03-28T02:25:57.369Z,4.05
2023-03-28T02:28:50.390Z,5.17
2023-03-28T02:31:29.839Z,5.10
2023-03-28T02:34:02.508Z,5.83
2023-03-28T02:36:57.157Z,6.22
2023-03-28T02:39:37.913Z,5.03
2023-03-28T02:42:18.863Z,5.83
2023-03-28T02:45:18.499Z,5.22
2023-03-28T02:48:24.921Z,5.50
2023-03-28T02:51:15.154Z,5.40
2023-03-28T02:53:59.182Z,4.70
2023-03-28T02:56:51.296Z,5.17
2023-03-28T02:59:43.048Z,5.55
2023-03-28T03:02:21.543Z,4.85
2023-03-28T03:04:55.269Z,5.62
2023-03-28T03:07:27.492Z,5.40
2023-03-28T03:10:01.115Z,5.30
2023-03-28T03:12:36.091Z,5.33
2023-03-28T03:15:10.649Z,6.33
2023-03-28T03:18:00.474Z,4.97
2023-03-28T03:20:34.406Z,5.28
2023-03-28T03:23:07.584Z,5.40
2023-03-28T03:25:39.947Z,5.20
2023-03-28T03:28:22.437Z,5.12
2023-03-28T03:30:55.296Z,5.20
2023-03-28T03:33:45.185Z,5.35
2023-03-28T03:36:19.023Z,6.17
2023-03-28T03:38:52.390Z,5.90
2023-03-28T03:41:26.441Z,5.05
2023-03-28T03:43:58.697Z,4.85
2023-03-28T03:46:30.863Z,5.50
2023-03-28T03:49:03.365Z,5.12
2023-03-28T03:51:36.133Z,5.58
2023-03-28T03:54:08.229Z,5.50
2023-03-28T03:56:41.976Z,5.85
2023-03-28T03:59:21.088Z,6.40
2023-03-28T04:01:53.365Z,5.90
2023-03-28T04:04:33.213Z,5.87
2023-03-28T04:07:22.164Z,5.80
2023-03-28T04:09:56.925Z,5.55
2023-03-28T04:12:31.309Z,5.72
2023-03-28T04:15:03.473Z,5.95
2023-03-28T04:17:44.483Z,4.80
2023-03-28T04:20:18.288Z,6.17
2023-03-28T04:22:53.925Z,5.60
2023-03-28T04:25:29.350Z,6.55
2023-03-28T04:28:03.883Z,5.87
2023-03-28T04:30:38.427Z,6.37
2023-03-28T04:33:30.427Z,6.17
2023-03-28T04:38:40.329Z,4.08
2023-03-28T04:41:17.972Z,4.75
2023-03-28T04:43:55.771Z,3.95
2023-03-28T04:49:03.830Z,5.12
2023-03-28T04:51:36.274Z,4.75
2023-03-28T04:54:08.669Z,3.85
2023-03-28T04:56:51.548Z,3.65
2023-03-28T04:59:28.889Z,4.45
2023-03-28T05:02:01.644Z,3.90
2023-03-28T05:04:39.948Z,4.55
2023-03-28T05:07:13.226Z,5.42
2023-03-28T05:09:50.071Z,4.95
2023-03-28T05:12:22.248Z,5.05
2023-03-28T05:14:58.687Z,4.83
2023-03-28T05:17:31.456Z,4.30
2023-03-28T05:20:12.892Z,4.05
2023-03-28T05:22:47.432Z,4.17
2023-03-28T05:25:22.149Z,4.80
2023-03-28T05:27:54.281Z,4.87
2023-03-28T05:30:26.571Z,4.12
2023-03-28T05:33:00.307Z,3.98
2023-03-28T05:35:33.826Z,4.30
2023-03-28T05:38:06.741Z,5.20
2023-03-28T05:40:39.112Z,6.03
2023-03-28T05:43:11.826Z,5.10
2023-03-28T05:45:44.068Z,5.55
2023-03-28T05:48:17.894Z,6.03
2023-03-28T05:50:52.532Z,5.25
2023-03-28T05:53:26.523Z,5.33
2023-03-28T05:55:58.825Z,7.50
2023-03-28T05:58:31.848Z,6.45
2023-03-28T06:01:05.660Z,4.28
2023-03-28T06:03:39.655Z,5.10
2023-03-28T06:06:13.694Z,4.35
2023-03-28T06:08:47.147Z,5.17
2023-03-28T06:11:20.430Z,5.50
2023-03-28T06:13:54.258Z,4.00
2023-03-28T06:16:30.557Z,5.70
2023-03-28T06:19:14.370Z,11.65
2023-03-28T06:21:34.739Z,4.67
2023-03-28T06:24:08.445Z,3.92
2023-03-28T06:26:42.425Z,5.17
2023-03-28T06:29:16.469Z,5.22
2023-03-28T06:31:50.234Z,6.03
2023-03-28T06:34:23.117Z,6.10
2023-03-28T06:36:56.840Z,4.60
2023-03-28T06:39:30.754Z,6.85
2023-03-28T06:42:03.712Z,6.15
2023-03-28T06:44:37.629Z,8.98
2023-03-28T06:47:20.904Z,4.70
2023-03-28T06:49:53.017Z,4.50
2023-03-28T06:52:44.700Z,3.87
2023-03-28T06:55:16.770Z,4.90
2023-03-28T06:57:49.173Z,5.50
2023-03-28T07:00:29.323Z,4.97
2023-03-28T07:03:19.264Z,5.40
2023-03-28T07:05:51.564Z,4.53
2023-03-28T07:08:23.749Z,3.40
2023-03-28T07:10:56.184Z,3.17
2023-03-28T07:13:28.460Z,4.60
2023-03-28T07:16:07.816Z,4.05
2023-03-28T07:18:41.320Z,3.15
2023-03-28T07:21:16.974Z,3.30
2023-03-28T07:23:48.923Z,6.25
2023-03-28T07:26:22.919Z,3.37
2023-03-28T07:28:56.840Z,3.92
2023-03-28T07:31:30.120Z,3.45
2023-03-28T07:34:03.438Z,3.60
2023-03-28T07:36:36.192Z,4.75
2023-03-28T07:39:10.335Z,2.87
2023-03-28T07:41:42.940Z,3.60
2023-03-28T07:44:15.229Z,4.90
2023-03-28T07:46:48.544Z,4.05
2023-03-28T07:49:21.499Z,4.28
2023-03-28T07:51:53.739Z,5.35
2023-03-28T07:54:27.889Z,6.40
2023-03-28T07:57:01.784Z,4.30
2023-03-28T07:59:35.880Z,4.92
2023-03-28T08:02:08.210Z,5.50
2023-03-28T08:04:40.622Z,7.78
2023-03-28T08:07:15.828Z,6.45
2023-03-28T08:09:50.646Z,4.00
2023-03-28T08:12:24.416Z,7.53
2023-03-28T08:14:57.007Z,6.92
2023-03-28T08:17:29.084Z,6.62
2023-03-28T08:20:01.690Z,5.12
2023-03-28T08:22:53.581Z,5.50
2023-03-28T08:25:36.634Z,5.28
2023-03-28T08:28:11.362Z,4.65
2023-03-28T08:33:16.355Z,5.97
2023-03-28T08:35:49.123Z,6.05
2023-03-28T08:38:22.687Z,5.72
2023-03-28T08:41:03.393Z,5.97
2023-03-28T08:43:40.115Z,7.10
2023-03-28T08:46:15.158Z,6.67
2023-03-28T08:48:49.697Z,5.75
2023-03-28T08:51:31.749Z,4.72
2023-03-28T08:54:08.465Z,4.55
2023-03-28T08:56:46.538Z,5.70
2023-03-28T08:59:24.343Z,4.83
2023-03-28T09:01:56.604Z,5.20
2023-03-28T09:04:35.258Z,4.33
2023-03-28T09:07:12.088Z,5.25
2023-03-28T09:09:49.880Z,4.75
2023-03-28T09:13:05.865Z,6.33
2023-03-28T09:15:41.136Z,5.90
2023-03-28T09:18:31.987Z,5.72
2023-03-28T09:21:22.195Z,4.90
2023-03-28T09:24:06.598Z,7.33
2023-03-28T09:26:52.311Z,5.28
2023-03-28T09:29:28.129Z,4.28
2023-03-28T09:32:03.795Z,3.83
2023-03-28T09:34:40.943Z,4.40
2023-03-28T09:37:19.270Z,4.28
2023-03-28T09:39:53.971Z,4.60
2023-03-28T09:42:47.449Z,3.60
2023-03-28T09:46:03.877Z,3.47
2023-03-28T09:48:41.787Z,5.20
2023-03-28T09:51:18.179Z,3.20
2023-03-28T09:53:50.856Z,3.62
2023-03-28T09:56:28.776Z,5.30
2023-03-28T09:59:04.004Z,4.20
2023-03-28T10:01:43.978Z,3.98
2023-03-28T10:04:20.656Z,4.20
2023-03-28T10:07:00.168Z,4.05
2023-03-28T10:09:32.626Z,4.42
2023-03-28T10:12:11.724Z,4.95
2023-03-28T10:14:46.174Z,5.15
2023-03-28T10:17:31.241Z,3.90
2023-03-28T10:20:15.800Z,2.45
2023-03-28T10:22:51.909Z,3.25
2023-03-28T10:25:32.641Z,2.85
2023-03-28T10:28:07.766Z,2.50
2023-03-28T10:30:41.477Z,2.35
2023-03-28T10:33:25.786Z,3.17
2023-03-28T10:36:09.733Z,2.87
2023-03-28T10:38:50.527Z,2.75
2023-03-28T10:41:26.546Z,3.10
2023-03-28T10:44:26.741Z,2.75
2023-03-28T10:47:09.062Z,2.87
2023-03-28T10:49:48.729Z,4.65
2023-03-28T10:52:47.721Z,3.00
2023-03-28T10:55:28.817Z,3.20
2023-03-28T10:58:23.559Z,3.95
2023-03-28T11:01:11.976Z,2.98
2023-03-28T11:03:51.444Z,3.85
2023-03-28T11:06:32.013Z,3.30
2023-03-28T11:09:10.959Z,2.98
2023-03-28T11:12:07.770Z,2.83
2023-03-28T11:15:08.721Z,3.17
2023-03-28T11:18:04.966Z,2.72
2023-03-28T11:23:38.137Z,2.80
2023-03-28T11:26:31.845Z,3.20
2023-03-28T11:29:17.227Z,2.27
2023-03-28T11:31:55.789Z,2.65
2023-03-28T11:34:43.430Z,2.72
2023-03-28T11:37:24.801Z,2.70
2023-03-28T11:40:00.358Z,3.85
2023-03-28T11:42:43.366Z,3.40
2023-03-28T11:45:37.515Z,2.75
2023-03-28T11:48:10.518Z,2.85
2023-03-28T11:50:55.781Z,3.10
2023-03-28T11:53:59.167Z,2.98
2023-03-28T11:56:42.184Z,5.37
2023-03-28T11:59:43.922Z,4.58
2023-03-28T12:02:42.679Z,2.50
2023-03-28T12:05:24.544Z,3.77
2023-03-28T12:07:59.727Z,2.52
2023-03-28T12:10:40.105Z,3.92
2023-03-28T12:13:25.992Z,3.70
2023-03-28T12:16:14.682Z,3.80
2023-03-28T12:19:01.637Z,4.20
2023-03-28T12:21:54.365Z,3.65
2023-03-28T12:24:32.465Z,4.12
2023-03-28T12:27:31.432Z,4.90
2023-03-28T12:30:07.453Z,3.55
2023-03-28T12:32:49.058Z,4.33
2023-03-28T12:35:44.222Z,4.08
2023-03-28T12:38:33.096Z,3.92
2023-03-28T12:41:09.497Z,4.42
2023-03-28T12:43:52.171Z,4.83
2023-03-28T12:46:31.315Z,3.20
2023-03-28T12:49:12.118Z,3.75
2023-03-28T12:51:47.662Z,6.00
2023-03-28T12:54:27.401Z,4.03
2023-03-28T12:57:09.873Z,5.17
2023-03-28T12:59:52.648Z,5.55
2023-03-28T13:02:38.523Z,5.25
2023-03-28T13:05:34.630Z,4.37
2023-03-28T13:08:13.814Z,4.08
2023-03-28T13:11:01.372Z,4.47
2023-03-28T13:13:57.484Z,4.75
2023-03-28T13:16:59.600Z,4.20
2023-03-28T13:19:51.132Z,4.28
2023-03-28T13:22:47.391Z,5.10
2023-03-28T13:25:22.457Z,4.92
2023-03-28T13:28:03.354Z,4.78
2023-03-28T13:30:35.957Z,6.08
2023-03-28T13:33:29.167Z,4.53
2023-03-28T13:36:05.315Z,4.85
2023-03-28T13:38:51.459Z,4.95
2023-03-28T13:41:36.041Z,3.90
2023-03-28T13:44:19.652Z,6.30
2023-03-28T13:46:54.328Z,4.53
2023-03-28T13:49:32.046Z,4.33
2023-03-28T13:52:12.620Z,4.28
2023-03-28T13:54:46.149Z,3.83
2023-03-28T13:57:20.946Z,4.60
2023-03-28T13:59:58.769Z,3.98
2023-03-28T14:02:51.716Z,3.65
2023-03-28T14:05:29.498Z,3.72
2023-03-28T14:08:17.917Z,3.05
2023-03-28T14:10:55.371Z,3.37
2023-03-28T14:13:31.282Z,3.22
2023-03-28T14:16:03.539Z,3.42
2023-03-28T14:18:47.583Z,4.80
2023-03-28T14:21:19.732Z,4.63
2023-03-28T14:24:06.925Z,3.72
2023-03-28T14:26:39.425Z,2.95
2023-03-28T14:29:18.813Z,3.35
2023-03-28T14:31:52.727Z,3.85
2023-03-28T14:34:27.477Z,3.63
2023-03-28T14:37:10.005Z,3.08
2023-03-28T14:39:42.376Z,3.80
2023-03-28T14:42:20.704Z,2.58
2023-03-28T14:44:56.220Z,2.87
2023-03-28T14:47:33.767Z,2.30
2023-03-28T14:50:07.238Z,2.67
2023-03-28T14:52:41.439Z,3.00
2023-03-28T14:55:26.471Z,2.62
2023-03-28T15:00:40.531Z,3.70
2023-03-28T15:03:18.517Z,2.80
2023-03-28T15:05:54.798Z,2.70
2023-03-28T15:08:39.424Z,3.02
2023-03-28T15:11:23.881Z,4.17
2023-03-28T15:14:18.711Z,3.15
2023-03-28T15:16:51.129Z,3.45
2023-03-28T15:19:28.216Z,4.25
2023-03-28T15:22:05.075Z,3.92
2023-03-28T15:24:39.384Z,2.75
2023-03-28T15:27:17.239Z,2.65
2023-03-28T15:29:49.871Z,2.50
2023-03-28T15:32:22.764Z,2.58
2023-03-28T15:35:00.591Z,2.60
2023-03-28T15:37:46.216Z,2.45
2023-03-28T15:40:24.069Z,3.10
2023-03-28T15:42:57.727Z,2.42
2023-03-28T15:45:39.848Z,3.17
2023-03-28T15:48:15.465Z,3.42
2023-03-28T15:50:54.173Z,3.10
2023-03-28T15:53:30.662Z,3.52
2023-03-28T15:56:26.337Z,3.50
2023-03-28T15:59:04.122Z,3.60
2023-03-28T16:01:36.470Z,3.55
2023-03-28T16:04:29.067Z,3.02
2023-03-28T16:07:15.499Z,3.47
2023-03-28T16:09:47.918Z,2.87
2023-03-28T16:12:20.815Z,2.87
2023-03-28T16:14:57.863Z,4.58
2023-03-28T16:17:34.678Z,3.15
2023-03-28T16:20:21.062Z,3.22
2023-03-28T16:22:53.392Z,3.40
2023-03-28T16:25:25.496Z,4.58
2023-03-28T16:27:57.896Z,3.30
2023-03-28T16:30:37.029Z,3.62
2023-03-28T16:33:09.275Z,3.10
2023-03-28T16:35:41.919Z,3.85
2023-03-28T16:38:14.496Z,3.85
2023-03-28T16:40:48.186Z,2.75
2023-03-28T16:43:20.670Z,2.80
2023-03-28T16:45:52.829Z,4.17
2023-03-28T16:48:25.081Z,3.33
2023-03-28T16:51:00.201Z,2.77
2023-03-28T16:53:34.027Z,4.10
2023-03-28T16:56:10.333Z,4.42
2023-03-28T16:58:43.710Z,4.15
2023-03-28T17:01:18.415Z,3.50
2023-03-28T17:03:52.931Z,3.70
2023-03-28T17:08:58.871Z,3.52
2023-03-28T17:11:31.733Z,3.52
2023-03-28T17:14:03.857Z,4.33
2023-03-28T17:16:37.348Z,2.98
2023-03-28T17:19:09.444Z,3.98
2023-03-28T17:21:42.106Z,4.10
2023-03-28T17:24:14.644Z,3.87
2023-03-28T17:26:46.663Z,4.10
2023-03-28T17:29:18.709Z,3.20
2023-03-28T17:31:51.663Z,2.75
2023-03-28T17:34:24.064Z,2.60
2023-03-28T17:36:56.198Z,2.20
2023-03-28T17:39:28.780Z,2.92
2023-03-28T17:42:02.234Z,3.20
2023-03-28T17:44:34.402Z,3.85
2023-03-28T17:47:06.522Z,3.10
2023-03-28T17:49:38.661Z,4.78
2023-03-28T17:52:10.845Z,4.12
2023-03-28T17:54:43.244Z,3.87
2023-03-28T17:57:15.600Z,3.80
2023-03-28T17:59:48.117Z,3.62
2023-03-28T18:02:20.499Z,3.40
2023-03-28T18:04:54.460Z,3.42
2023-03-28T18:07:28.756Z,3.67
2023-03-28T18:10:03.127Z,3.33
2023-03-28T18:12:34.971Z,3.35
2023-03-28T18:15:08.321Z,3.58
2023-03-28T18:17:40.638Z,3.50
2023-03-28T18:20:13.399Z,4.08
2023-03-28T18:22:45.572Z,4.03
2023-03-28T18:25:17.528Z,3.67
2023-03-28T18:27:49.754Z,3.42
2023-03-28T18:30:21.797Z,4.00
2023-03-28T18:32:53.793Z,3.27
2023-03-28T18:35:27.896Z,4.00
2023-03-28T18:38:00.147Z,4.27
2023-03-28T18:40:32.380Z,3.83
2023-03-28T18:43:04.324Z,3.47
2023-03-28T18:45:37.257Z,3.50
2023-03-28T18:48:09.743Z,3.67
2023-03-28T18:50:42.364Z,3.62
2023-03-28T18:53:14.649Z,3.67
2023-03-28T18:55:46.857Z,3.62
2023-03-28T18:58:18.920Z,4.12
2023-03-28T19:00:57.598Z,3.87
2023-03-28T19:03:31.774Z,2.67
2023-03-28T19:06:04.559Z,4.28
2023-03-28T19:08:37.002Z,3.20
2023-03-28T19:11:12.380Z,3.12
2023-03-28T19:13:44.696Z,3.12
2023-03-28T19:16:19.494Z,4.30
2023-03-28T19:18:51.895Z,3.75
2023-03-28T19:21:23.980Z,3.60
2023-03-28T19:23:56.333Z,4.50
2023-03-28T19:26:28.422Z,3.95
2023-03-28T19:29:00.480Z,4.15
2023-03-28T19:31:32.747Z,4.20
2023-03-28T19:34:04.951Z,4.75
2023-03-28T19:36:36.962Z,3.87
2023-03-28T19:39:09.251Z,4.87
2023-03-28T19:41:41.823Z,5.37
2023-03-28T19:44:13.817Z,4.37
2023-03-28T19:46:46.174Z,3.72
2023-03-28T19:49:19.191Z,4.00
2023-03-28T19:51:52.854Z,4.05
2023-03-28T19:54:25.817Z,4.20
2023-03-28T19:56:57.807Z,3.80
2023-03-28T19:59:29.943Z,3.77
2023-03-28T20:02:02.235Z,4.00
2023-03-28T20:04:34.304Z,4.10
2023-03-28T20:07:06.312Z,4.03
2023-03-28T20:09:38.758Z,4.53
2023-03-28T20:12:10.790Z,3.85
2023-03-28T20:14:43.041Z,3.92
2023-03-28T20:17:15.129Z,4.12
2023-03-28T20:19:47.250Z,4.65
2023-03-28T20:22:21.281Z,3.80
2023-03-28T20:24:53.553Z,4.72
2023-03-28T20:27:25.741Z,4.53
2023-03-28T20:29:58.125Z,4.40
2023-03-28T20:32:30.077Z,4.30
2023-03-28T20:35:02.045Z,4.20
2023-03-28T20:37:34.814Z,3.80
2023-03-28T20:40:09.105Z,4.20
2023-03-28T20:42:42.143Z,3.87
2023-03-28T20:45:16.468Z,4.08
2023-03-28T20:47:50.139Z,4.83
2023-03-28T20:50:22.349Z,3.17
2023-03-28T20:52:54.985Z,4.28
2023-03-28T20:55:28.464Z,4.05
2023-03-28T20:58:01.051Z,4.40
2023-03-28T21:00:33.923Z,3.70
2023-03-28T21:03:07.721Z,4.25
2023-03-28T21:05:44.657Z,3.72
2023-03-28T21:08:18.250Z,4.58
2023-03-28T21:10:53.994Z,4.20
2023-03-28T21:13:26.517Z,4.67
2023-03-28T21:15:58.591Z,3.70
2023-03-28T21:18:30.572Z,4.05
2023-03-28T21:21:03.059Z,3.50
2023-03-28T21:23:37.946Z,3.47
2023-03-28T21:26:16.274Z,4.08
2023-03-28T21:28:48.971Z,4.60
2023-03-28T21:31:26.539Z,4.10
2023-03-28T21:34:01.100Z,4.80
2023-03-28T21:36:33.621Z,3.70
2023-03-28T21:39:05.568Z,4.40
2023-03-28T21:41:38.246Z,4.42
2023-03-28T21:44:10.193Z,4.08
2023-03-28T21:46:42.383Z,3.92
2023-03-28T21:49:14.311Z,3.50
2023-03-28T21:51:46.510Z,4.22
2023-03-28T21:54:18.706Z,4.45
2023-03-28T21:56:50.640Z,3.65
2023-03-28T21:59:22.807Z,3.70
2023-03-28T22:01:55.073Z,3.50
2023-03-28T22:04:28.502Z,3.45
2023-03-28T22:07:00.572Z,3.83
2023-03-28T22:09:34.091Z,3.60
2023-03-28T22:12:07.093Z,3.50
2023-03-28T22:14:39.071Z,4.00
2023-03-28T22:17:11.431Z,3.85
2023-03-28T22:19:43.916Z,3.20
2023-03-28T22:22:17.595Z,3.45
2023-03-28T22:24:49.816Z,4.22
2023-03-28T22:27:24.971Z,3.83
2023-03-28T22:29:57.257Z,3.95
2023-03-28T22:32:29.444Z,3.87
2023-03-28T22:35:01.800Z,3.87
2023-03-28T22:37:34.366Z,4.33
2023-03-28T22:40:08.601Z,4.33
2023-03-28T22:42:42.194Z,4.12
2023-03-28T22:45:15.118Z,4.47
2023-03-28T22:47:48.667Z,4.25
2023-03-28T22:50:22.652Z,3.05
2023-03-28T22:52:55.208Z,4.67
2023-03-28T22:55:27.128Z,4.35
2023-03-28T22:57:59.242Z,4.85
2023-03-28T23:00:31.802Z,4.20
2023-03-28T23:03:04.034Z,5.17
2023-03-28T23:05:36.196Z,5.28
2023-03-28T23:08:08.746Z,4.47
2023-03-28T23:10:41.635Z,4.60
2023-03-28T23:13:13.794Z,4.70
2023-03-28T23:15:45.844Z,4.67
2023-03-28T23:18:17.867Z,4.35
2023-03-28T23:20:53.036Z,5.35
2023-03-28T23:23:25.487Z,4.90
2023-03-28T23:25:57.758Z,4.83
2023-03-28T23:28:30.137Z,4.58
2023-03-28T23:31:02.951Z,4.40
2023-03-28T23:33:36.224Z,4.90
2023-03-28T23:36:08.741Z,4.58
2023-03-28T23:38:41.142Z,4.28
2023-03-28T23:41:13.141Z,4.40
2023-03-28T23:43:45.432Z,4.10
2023-03-28T23:46:17.685Z,4.40
2023-03-28T23:48:49.714Z,4.47
2023-03-28T23:51:21.861Z,5.00
2023-03-28T23:53:53.885Z,4.87
2023-03-28T23:56:26.057Z,4.15
2023-03-28T23:58:58.121Z,4.50
